sensor_id;sensor_type;location;lat;lon;timestamp;P1;durP1;ratioP1;P2;durP2;ratioP2
27003;SDS011;14546;47.590;19.022;2023-04-08T00:01:48;43.55;;;27.80;;
27003;SDS011;14546;47.590;19.022;2023-04-08T00:04:14;41.92;;;27.33;;
27003;SDS011;14546;47.590;19.022;2023-04-08T00:06:40;43.20;;;27.83;;
27003;SDS011;14546;47.590;19.022;2023-04-08T00:09:06;45.85;;;27.50;;
27003;SDS011;14546;47.590;19.022;2023-04-08T00:11:32;45.78;;;28.52;;
27003;SDS011;14546;47.590;19.022;2023-04-08T00:13:58;45.38;;;29.00;;
27003;SDS011;14546;47.590;19.022;2023-04-08T00:16:24;49.25;;;28.20;;
27003;SDS011;14546;47.590;19.022;2023-04-08T00:18:50;46.67;;;28.48;;
27003;SDS011;14546;47.590;19.022;2023-04-08T00:21:16;45.22;;;28.33;;
27003;SDS011;14546;47.590;19.022;2023-04-08T00:23:44;47.97;;;28.80;;
27003;SDS011;14546;47.590;19.022;2023-04-08T00:26:10;46.88;;;29.10;;
27003;SDS011;14546;47.590;19.022;2023-04-08T00:28:36;48.50;;;30.33;;
27003;SDS011;14546;47.590;19.022;2023-04-08T00:31:02;51.22;;;31.52;;
27003;SDS011;14546;47.590;19.022;2023-04-08T00:33:28;49.13;;;31.30;;
27003;SDS011;14546;47.590;19.022;2023-04-08T00:35:54;46.90;;;29.67;;
27003;SDS011;14546;47.590;19.022;2023-04-08T00:38:19;47.53;;;29.02;;
27003;SDS011;14546;47.590;19.022;2023-04-08T00:40:45;46.58;;;28.80;;
27003;SDS011;14546;47.590;19.022;2023-04-08T00:43:11;46.65;;;29.73;;
27003;SDS011;14546;47.590;19.022;2023-04-08T00:45:36;50.10;;;31.23;;
27003;SDS011;14546;47.590;19.022;2023-04-08T00:48:03;47.75;;;30.00;;
27003;SDS011;14546;47.590;19.022;2023-04-08T00:50:29;50.95;;;31.30;;
27003;SDS011;14546;47.590;19.022;2023-04-08T00:52:55;50.75;;;29.92;;
27003;SDS011;14546;47.590;19.022;2023-04-08T00:55:21;48.38;;;29.63;;
27003;SDS011;14546;47.590;19.022;2023-04-08T00:57:46;49.30;;;30.70;;
27003;SDS011;14546;47.590;19.022;2023-04-08T01:00:15;48.85;;;29.90;;
27003;SDS011;14546;47.590;19.022;2023-04-08T01:02:44;49.78;;;31.15;;
27003;SDS011;14546;47.590;19.022;2023-04-08T01:05:20;53.03;;;30.67;;
27003;SDS011;14546;47.590;19.022;2023-04-08T01:08:04;52.10;;;30.55;;
27003;SDS011;14546;47.590;19.022;2023-04-08T01:10:32;53.15;;;31.45;;
27003;SDS011;14546;47.590;19.022;2023-04-08T01:13:05;47.78;;;30.58;;
27003;SDS011;14546;47.590;19.022;2023-04-08T01:15:35;49.38;;;29.95;;
27003;SDS011;14546;47.590;19.022;2023-04-08T01:18:05;45.97;;;29.80;;
27003;SDS011;14546;47.590;19.022;2023-04-08T01:20:32;50.95;;;29.90;;
27003;SDS011;14546;47.590;19.022;2023-04-08T01:25:38;48.85;;;30.25;;
27003;SDS011;14546;47.590;19.022;2023-04-08T01:28:10;57.25;;;32.00;;
27003;SDS011;14546;47.590;19.022;2023-04-08T01:30:39;52.50;;;31.50;;
27003;SDS011;14546;47.590;19.022;2023-04-08T01:33:07;51.28;;;31.27;;
27003;SDS011;14546;47.590;19.022;2023-04-08T01:35:36;49.83;;;30.17;;
27003;SDS011;14546;47.590;19.022;2023-04-08T01:38:02;55.65;;;31.15;;
27003;SDS011;14546;47.590;19.022;2023-04-08T01:40:31;52.03;;;31.88;;
27003;SDS011;14546;47.590;19.022;2023-04-08T01:42:59;51.33;;;31.48;;
27003;SDS011;14546;47.590;19.022;2023-04-08T01:45:26;53.20;;;31.85;;
27003;SDS011;14546;47.590;19.022;2023-04-08T01:47:52;53.55;;;31.27;;
27003;SDS011;14546;47.590;19.022;2023-04-08T01:50:20;52.15;;;31.98;;
27003;SDS011;14546;47.590;19.022;2023-04-08T01:52:47;55.00;;;32.67;;
27003;SDS011;14546;47.590;19.022;2023-04-08T01:55:15;60.00;;;33.38;;
27003;SDS011;14546;47.590;19.022;2023-04-08T01:57:41;51.83;;;31.85;;
27003;SDS011;14546;47.590;19.022;2023-04-08T02:00:11;47.58;;;29.35;;
27003;SDS011;14546;47.590;19.022;2023-04-08T02:02:39;49.67;;;29.38;;
27003;SDS011;14546;47.590;19.022;2023-04-08T02:05:07;49.78;;;30.80;;
27003;SDS011;14546;47.590;19.022;2023-04-08T02:07:33;52.17;;;31.38;;
27003;SDS011;14546;47.590;19.022;2023-04-08T02:09:59;53.67;;;31.08;;
27003;SDS011;14546;47.590;19.022;2023-04-08T02:12:24;50.60;;;30.73;;
27003;SDS011;14546;47.590;19.022;2023-04-08T02:14:52;49.20;;;30.50;;
27003;SDS011;14546;47.590;19.022;2023-04-08T02:18:04;48.70;;;29.17;;
27003;SDS011;14546;47.590;19.022;2023-04-08T02:20:06;48.65;;;29.45;;
27003;SDS011;14546;47.590;19.022;2023-04-08T02:22:59;48.85;;;29.75;;
27003;SDS011;14546;47.590;19.022;2023-04-08T02:25:27;44.78;;;26.52;;
27003;SDS011;14546;47.590;19.022;2023-04-08T02:27:54;47.63;;;29.05;;
27003;SDS011;14546;47.590;19.022;2023-04-08T02:30:21;49.53;;;28.52;;
27003;SDS011;14546;47.590;19.022;2023-04-08T02:32:49;46.53;;;28.52;;
27003;SDS011;14546;47.590;19.022;2023-04-08T02:35:17;43.20;;;27.23;;
27003;SDS011;14546;47.590;19.022;2023-04-08T02:37:47;47.63;;;27.02;;
27003;SDS011;14546;47.590;19.022;2023-04-08T02:42:47;47.20;;;28.38;;
27003;SDS011;14546;47.590;19.022;2023-04-08T02:45:13;44.53;;;27.83;;
27003;SDS011;14546;47.590;19.022;2023-04-08T02:47:39;46.85;;;28.42;;
27003;SDS011;14546;47.590;19.022;2023-04-08T02:50:05;45.08;;;28.70;;
27003;SDS011;14546;47.590;19.022;2023-04-08T02:52:31;44.17;;;27.42;;
27003;SDS011;14546;47.590;19.022;2023-04-08T02:54:56;50.42;;;29.65;;
27003;SDS011;14546;47.590;19.022;2023-04-08T02:57:22;48.15;;;29.15;;
27003;SDS011;14546;47.590;19.022;2023-04-08T02:59:47;52.25;;;28.80;;
27003;SDS011;14546;47.590;19.022;2023-04-08T03:02:13;49.28;;;29.10;;
27003;SDS011;14546;47.590;19.022;2023-04-08T03:04:39;48.58;;;28.92;;
27003;SDS011;14546;47.590;19.022;2023-04-08T03:07:05;48.88;;;28.00;;
27003;SDS011;14546;47.590;19.022;2023-04-08T03:09:30;51.42;;;29.38;;
27003;SDS011;14546;47.590;19.022;2023-04-08T03:11:56;47.72;;;29.23;;
27003;SDS011;14546;47.590;19.022;2023-04-08T03:14:22;48.80;;;28.90;;
27003;SDS011;14546;47.590;19.022;2023-04-08T03:16:47;47.10;;;28.63;;
27003;SDS011;14546;47.590;19.022;2023-04-08T03:19:13;46.92;;;27.27;;
27003;SDS011;14546;47.590;19.022;2023-04-08T03:21:39;43.17;;;26.55;;
27003;SDS011;14546;47.590;19.022;2023-04-08T03:24:05;42.35;;;25.33;;
27003;SDS011;14546;47.590;19.022;2023-04-08T03:26:30;44.83;;;25.42;;
27003;SDS011;14546;47.590;19.022;2023-04-08T03:28:56;47.20;;;27.83;;
27003;SDS011;14546;47.590;19.022;2023-04-08T03:31:22;47.10;;;27.50;;
27003;SDS011;14546;47.590;19.022;2023-04-08T03:33:47;43.72;;;27.25;;
27003;SDS011;14546;47.590;19.022;2023-04-08T03:36:13;44.83;;;26.90;;
27003;SDS011;14546;47.590;19.022;2023-04-08T03:38:39;42.17;;;26.73;;
27003;SDS011;14546;47.590;19.022;2023-04-08T03:41:05;42.72;;;26.10;;
27003;SDS011;14546;47.590;19.022;2023-04-08T03:43:30;45.08;;;26.77;;
27003;SDS011;14546;47.590;19.022;2023-04-08T03:45:56;43.60;;;26.05;;
27003;SDS011;14546;47.590;19.022;2023-04-08T03:48:22;43.38;;;27.10;;
27003;SDS011;14546;47.590;19.022;2023-04-08T03:50:48;42.75;;;27.25;;
27003;SDS011;14546;47.590;19.022;2023-04-08T03:53:13;44.92;;;27.70;;
27003;SDS011;14546;47.590;19.022;2023-04-08T03:55:39;48.72;;;28.20;;
27003;SDS011;14546;47.590;19.022;2023-04-08T03:58:05;45.65;;;27.35;;
27003;SDS011;14546;47.590;19.022;2023-04-08T04:00:30;45.25;;;27.58;;
27003;SDS011;14546;47.590;19.022;2023-04-08T04:02:56;47.15;;;27.20;;
27003;SDS011;14546;47.590;19.022;2023-04-08T04:05:22;42.53;;;26.35;;
27003;SDS011;14546;47.590;19.022;2023-04-08T04:07:47;45.78;;;27.08;;
27003;SDS011;14546;47.590;19.022;2023-04-08T04:10:13;46.72;;;27.02;;
27003;SDS011;14546;47.590;19.022;2023-04-08T04:12:39;44.08;;;25.83;;
27003;SDS011;14546;47.590;19.022;2023-04-08T04:15:05;41.65;;;26.15;;
27003;SDS011;14546;47.590;19.022;2023-04-08T04:17:31;43.40;;;25.70;;
27003;SDS011;14546;47.590;19.022;2023-04-08T04:19:57;42.55;;;26.67;;
27003;SDS011;14546;47.590;19.022;2023-04-08T04:22:22;41.45;;;26.13;;
27003;SDS011;14546;47.590;19.022;2023-04-08T04:24:48;42.88;;;26.23;;
27003;SDS011;14546;47.590;19.022;2023-04-08T04:27:14;43.70;;;27.17;;
27003;SDS011;14546;47.590;19.022;2023-04-08T04:29:41;40.97;;;26.40;;
27003;SDS011;14546;47.590;19.022;2023-04-08T04:32:07;42.67;;;26.42;;
27003;SDS011;14546;47.590;19.022;2023-04-08T04:34:33;40.97;;;26.30;;
27003;SDS011;14546;47.590;19.022;2023-04-08T04:36:59;41.72;;;25.85;;
27003;SDS011;14546;47.590;19.022;2023-04-08T04:39:26;41.78;;;26.23;;
27003;SDS011;14546;47.590;19.022;2023-04-08T04:41:52;40.28;;;26.13;;
27003;SDS011;14546;47.590;19.022;2023-04-08T04:44:18;41.92;;;26.60;;
27003;SDS011;14546;47.590;19.022;2023-04-08T04:46:43;45.72;;;27.25;;
27003;SDS011;14546;47.590;19.022;2023-04-08T04:49:09;48.17;;;28.48;;
27003;SDS011;14546;47.590;19.022;2023-04-08T04:51:35;41.63;;;26.67;;
27003;SDS011;14546;47.590;19.022;2023-04-08T04:54:00;43.55;;;26.67;;
27003;SDS011;14546;47.590;19.022;2023-04-08T04:56:26;43.00;;;26.88;;
27003;SDS011;14546;47.590;19.022;2023-04-08T04:58:54;45.25;;;28.05;;
27003;SDS011;14546;47.590;19.022;2023-04-08T05:01:20;45.28;;;28.08;;
27003;SDS011;14546;47.590;19.022;2023-04-08T05:03:46;44.22;;;27.27;;
27003;SDS011;14546;47.590;19.022;2023-04-08T05:06:11;43.75;;;28.17;;
27003;SDS011;14546;47.590;19.022;2023-04-08T05:08:37;48.97;;;26.95;;
27003;SDS011;14546;47.590;19.022;2023-04-08T05:11:02;45.45;;;27.52;;
27003;SDS011;14546;47.590;19.022;2023-04-08T05:13:28;45.88;;;27.70;;
27003;SDS011;14546;47.590;19.022;2023-04-08T05:15:54;45.38;;;27.27;;
27003;SDS011;14546;47.590;19.022;2023-04-08T05:18:20;46.47;;;28.30;;
27003;SDS011;14546;47.590;19.022;2023-04-08T05:20:45;48.25;;;28.17;;
27003;SDS011;14546;47.590;19.022;2023-04-08T05:23:11;45.42;;;28.33;;
27003;SDS011;14546;47.590;19.022;2023-04-08T05:25:37;45.03;;;26.83;;
27003;SDS011;14546;47.590;19.022;2023-04-08T05:28:03;44.08;;;27.27;;
27003;SDS011;14546;47.590;19.022;2023-04-08T05:30:28;45.58;;;27.75;;
27003;SDS011;14546;47.590;19.022;2023-04-08T05:32:55;45.45;;;27.67;;
27003;SDS011;14546;47.590;19.022;2023-04-08T05:35:24;42.45;;;26.73;;
27003;SDS011;14546;47.590;19.022;2023-04-08T05:37:49;45.05;;;26.88;;
27003;SDS011;14546;47.590;19.022;2023-04-08T05:40:15;43.05;;;27.27;;
27003;SDS011;14546;47.590;19.022;2023-04-08T05:42:40;43.20;;;27.92;;
27003;SDS011;14546;47.590;19.022;2023-04-08T05:45:06;47.30;;;27.42;;
27003;SDS011;14546;47.590;19.022;2023-04-08T05:47:32;45.50;;;27.92;;
27003;SDS011;14546;47.590;19.022;2023-04-08T05:49:58;44.85;;;28.23;;
27003;SDS011;14546;47.590;19.022;2023-04-08T05:52:24;44.08;;;26.98;;
27003;SDS011;14546;47.590;19.022;2023-04-08T05:54:50;50.40;;;27.67;;
27003;SDS011;14546;47.590;19.022;2023-04-08T05:57:16;40.90;;;27.25;;
27003;SDS011;14546;47.590;19.022;2023-04-08T05:59:41;42.17;;;26.80;;
27003;SDS011;14546;47.590;19.022;2023-04-08T06:02:07;44.10;;;27.58;;
27003;SDS011;14546;47.590;19.022;2023-04-08T06:04:32;50.35;;;27.63;;
27003;SDS011;14546;47.590;19.022;2023-04-08T06:06:58;46.50;;;27.50;;
27003;SDS011;14546;47.590;19.022;2023-04-08T06:09:26;47.28;;;28.05;;
27003;SDS011;14546;47.590;19.022;2023-04-08T06:11:52;42.28;;;27.77;;
27003;SDS011;14546;47.590;19.022;2023-04-08T06:14:18;44.15;;;28.30;;
27003;SDS011;14546;47.590;19.022;2023-04-08T06:16:44;45.00;;;27.55;;
27003;SDS011;14546;47.590;19.022;2023-04-08T06:19:10;47.13;;;28.55;;
27003;SDS011;14546;47.590;19.022;2023-04-08T06:21:36;44.72;;;28.55;;
27003;SDS011;14546;47.590;19.022;2023-04-08T06:24:02;46.55;;;27.75;;
27003;SDS011;14546;47.590;19.022;2023-04-08T06:26:27;45.53;;;27.55;;
27003;SDS011;14546;47.590;19.022;2023-04-08T06:28:53;46.08;;;27.88;;
27003;SDS011;14546;47.590;19.022;2023-04-08T06:31:19;47.70;;;28.98;;
27003;SDS011;14546;47.590;19.022;2023-04-08T06:33:45;49.33;;;30.55;;
27003;SDS011;14546;47.590;19.022;2023-04-08T06:36:11;53.08;;;30.70;;
27003;SDS011;14546;47.590;19.022;2023-04-08T06:38:37;50.17;;;30.98;;
27003;SDS011;14546;47.590;19.022;2023-04-08T06:41:06;50.90;;;30.95;;
27003;SDS011;14546;47.590;19.022;2023-04-08T06:43:32;48.38;;;29.23;;
27003;SDS011;14546;47.590;19.022;2023-04-08T06:45:59;47.45;;;29.88;;
27003;SDS011;14546;47.590;19.022;2023-04-08T06:48:25;48.33;;;30.83;;
27003;SDS011;14546;47.590;19.022;2023-04-08T06:50:58;50.00;;;29.52;;
27003;SDS011;14546;47.590;19.022;2023-04-08T06:53:25;51.90;;;30.42;;
27003;SDS011;14546;47.590;19.022;2023-04-08T06:55:53;49.17;;;30.25;;
27003;SDS011;14546;47.590;19.022;2023-04-08T06:58:19;52.17;;;32.20;;
27003;SDS011;14546;47.590;19.022;2023-04-08T07:00:45;49.78;;;28.77;;
27003;SDS011;14546;47.590;19.022;2023-04-08T07:03:11;45.75;;;28.05;;
27003;SDS011;14546;47.590;19.022;2023-04-08T07:05:37;49.55;;;29.92;;
27003;SDS011;14546;47.590;19.022;2023-04-08T07:08:03;50.30;;;29.55;;
27003;SDS011;14546;47.590;19.022;2023-04-08T07:10:30;49.65;;;29.75;;
27003;SDS011;14546;47.590;19.022;2023-04-08T07:12:56;54.55;;;30.48;;
27003;SDS011;14546;47.590;19.022;2023-04-08T07:15:21;53.85;;;30.75;;
27003;SDS011;14546;47.590;19.022;2023-04-08T07:17:47;52.97;;;30.25;;
27003;SDS011;14546;47.590;19.022;2023-04-08T07:20:12;49.25;;;29.70;;
27003;SDS011;14546;47.590;19.022;2023-04-08T07:22:39;50.15;;;29.55;;
27003;SDS011;14546;47.590;19.022;2023-04-08T07:25:04;46.45;;;28.67;;
27003;SDS011;14546;47.590;19.022;2023-04-08T07:27:32;52.17;;;29.67;;
27003;SDS011;14546;47.590;19.022;2023-04-08T07:30:01;45.92;;;28.98;;
27003;SDS011;14546;47.590;19.022;2023-04-08T07:32:27;51.30;;;30.33;;
27003;SDS011;14546;47.590;19.022;2023-04-08T07:34:52;48.22;;;28.95;;
27003;SDS011;14546;47.590;19.022;2023-04-08T07:37:18;47.40;;;28.77;;
27003;SDS011;14546;47.590;19.022;2023-04-08T07:39:47;45.17;;;27.90;;
27003;SDS011;14546;47.590;19.022;2023-04-08T07:42:12;41.65;;;26.50;;
27003;SDS011;14546;47.590;19.022;2023-04-08T07:44:38;44.25;;;27.52;;
27003;SDS011;14546;47.590;19.022;2023-04-08T07:47:04;42.70;;;26.65;;
27003;SDS011;14546;47.590;19.022;2023-04-08T07:49:32;42.85;;;26.95;;
27003;SDS011;14546;47.590;19.022;2023-04-08T07:51:58;44.03;;;26.40;;
27003;SDS011;14546;47.590;19.022;2023-04-08T07:54:24;42.85;;;27.15;;
27003;SDS011;14546;47.590;19.022;2023-04-08T07:56:49;43.88;;;27.25;;
27003;SDS011;14546;47.590;19.022;2023-04-08T07:59:15;38.30;;;24.42;;
27003;SDS011;14546;47.590;19.022;2023-04-08T08:01:41;42.47;;;25.80;;
27003;SDS011;14546;47.590;19.022;2023-04-08T08:04:06;40.08;;;24.48;;
27003;SDS011;14546;47.590;19.022;2023-04-08T08:06:32;37.45;;;24.40;;
27003;SDS011;14546;47.590;19.022;2023-04-08T08:08:58;40.80;;;25.08;;
27003;SDS011;14546;47.590;19.022;2023-04-08T08:11:24;36.05;;;23.17;;
27003;SDS011;14546;47.590;19.022;2023-04-08T08:13:54;35.67;;;23.17;;
27003;SDS011;14546;47.590;19.022;2023-04-08T08:16:21;37.13;;;23.48;;
27003;SDS011;14546;47.590;19.022;2023-04-08T08:18:46;40.40;;;24.95;;
27003;SDS011;14546;47.590;19.022;2023-04-08T08:21:12;40.22;;;24.10;;
27003;SDS011;14546;47.590;19.022;2023-04-08T08:23:38;39.67;;;24.92;;
27003;SDS011;14546;47.590;19.022;2023-04-08T08:26:04;45.95;;;25.45;;
27003;SDS011;14546;47.590;19.022;2023-04-08T08:28:33;40.15;;;25.75;;
27003;SDS011;14546;47.590;19.022;2023-04-08T08:30:59;41.10;;;25.60;;
27003;SDS011;14546;47.590;19.022;2023-04-08T08:33:25;38.40;;;24.08;;
27003;SDS011;14546;47.590;19.022;2023-04-08T08:35:51;40.38;;;24.95;;
27003;SDS011;14546;47.590;19.022;2023-04-08T08:38:16;37.78;;;24.75;;
27003;SDS011;14546;47.590;19.022;2023-04-08T08:40:43;35.75;;;22.98;;
27003;SDS011;14546;47.590;19.022;2023-04-08T08:43:09;37.90;;;23.85;;
27003;SDS011;14546;47.590;19.022;2023-04-08T08:45:39;40.08;;;25.17;;
27003;SDS011;14546;47.590;19.022;2023-04-08T08:48:05;43.28;;;24.77;;
27003;SDS011;14546;47.590;19.022;2023-04-08T08:50:34;37.63;;;23.98;;
27003;SDS011;14546;47.590;19.022;2023-04-08T08:53:00;35.88;;;23.55;;
27003;SDS011;14546;47.590;19.022;2023-04-08T08:55:29;35.40;;;23.92;;
27003;SDS011;14546;47.590;19.022;2023-04-08T08:57:56;35.03;;;24.58;;
27003;SDS011;14546;47.590;19.022;2023-04-08T09:00:32;35.33;;;23.17;;
27003;SDS011;14546;47.590;19.022;2023-04-08T09:03:14;35.38;;;22.80;;
27003;SDS011;14546;47.590;19.022;2023-04-08T09:05:53;35.42;;;23.20;;
27003;SDS011;14546;47.590;19.022;2023-04-08T09:08:36;37.58;;;24.13;;
27003;SDS011;14546;47.590;19.022;2023-04-08T09:11:13;37.60;;;23.58;;
27003;SDS011;14546;47.590;19.022;2023-04-08T09:13:47;29.75;;;21.20;;
27003;SDS011;14546;47.590;19.022;2023-04-08T09:16:14;33.58;;;20.05;;
27003;SDS011;14546;47.590;19.022;2023-04-08T09:18:42;29.42;;;20.08;;
27003;SDS011;14546;47.590;19.022;2023-04-08T09:21:10;28.98;;;20.98;;
27003;SDS011;14546;47.590;19.022;2023-04-08T09:26:07;31.17;;;20.25;;
27003;SDS011;14546;47.590;19.022;2023-04-08T09:28:37;26.67;;;20.13;;
27003;SDS011;14546;47.590;19.022;2023-04-08T09:31:17;28.67;;;21.00;;
27003;SDS011;14546;47.590;19.022;2023-04-08T09:33:52;32.10;;;21.80;;
27003;SDS011;14546;47.590;19.022;2023-04-08T09:36:19;33.45;;;20.98;;
27003;SDS011;14546;47.590;19.022;2023-04-08T09:38:45;30.73;;;21.08;;
27003;SDS011;14546;47.590;19.022;2023-04-08T09:41:20;32.63;;;21.85;;
27003;SDS011;14546;47.590;19.022;2023-04-08T09:43:48;31.98;;;22.33;;
27003;SDS011;14546;47.590;19.022;2023-04-08T09:46:16;30.67;;;22.17;;
27003;SDS011;14546;47.590;19.022;2023-04-08T09:48:51;29.02;;;20.42;;
27003;SDS011;14546;47.590;19.022;2023-04-08T09:51:22;29.17;;;20.17;;
27003;SDS011;14546;47.590;19.022;2023-04-08T09:53:54;30.00;;;21.10;;
27003;SDS011;14546;47.590;19.022;2023-04-08T09:56:24;35.22;;;21.88;;
27003;SDS011;14546;47.590;19.022;2023-04-08T09:58:57;31.45;;;22.67;;
27003;SDS011;14546;47.590;19.022;2023-04-08T10:01:29;34.60;;;23.55;;
27003;SDS011;14546;47.590;19.022;2023-04-08T10:04:03;34.55;;;23.38;;
27003;SDS011;14546;47.590;19.022;2023-04-08T10:06:32;31.05;;;22.60;;
27003;SDS011;14546;47.590;19.022;2023-04-08T10:09:00;34.75;;;23.83;;
27003;SDS011;14546;47.590;19.022;2023-04-08T10:11:29;35.65;;;25.15;;
27003;SDS011;14546;47.590;19.022;2023-04-08T10:13:55;33.13;;;24.67;;
27003;SDS011;14546;47.590;19.022;2023-04-08T10:16:22;33.40;;;23.60;;
27003;SDS011;14546;47.590;19.022;2023-04-08T10:18:50;32.28;;;23.38;;
27003;SDS011;14546;47.590;19.022;2023-04-08T10:21:45;35.35;;;22.50;;
27003;SDS011;14546;47.590;19.022;2023-04-08T10:24:12;29.77;;;22.98;;
27003;SDS011;14546;47.590;19.022;2023-04-08T10:29:49;33.75;;;24.98;;
27003;SDS011;14546;47.590;19.022;2023-04-08T10:31:50;34.42;;;25.30;;
27003;SDS011;14546;47.590;19.022;2023-04-08T10:34:20;34.35;;;25.40;;
27003;SDS011;14546;47.590;19.022;2023-04-08T10:36:48;35.85;;;25.08;;
27003;SDS011;14546;47.590;19.022;2023-04-08T10:39:14;36.63;;;25.65;;
27003;SDS011;14546;47.590;19.022;2023-04-08T10:41:44;31.60;;;23.27;;
27003;SDS011;14546;47.590;19.022;2023-04-08T10:44:17;33.85;;;24.20;;
27003;SDS011;14546;47.590;19.022;2023-04-08T10:46:47;32.70;;;25.02;;
27003;SDS011;14546;47.590;19.022;2023-04-08T10:49:14;34.10;;;25.00;;
27003;SDS011;14546;47.590;19.022;2023-04-08T10:51:44;33.78;;;25.00;;
27003;SDS011;14546;47.590;19.022;2023-04-08T10:54:11;33.83;;;24.55;;
27003;SDS011;14546;47.590;19.022;2023-04-08T10:59:11;31.10;;;23.50;;
27003;SDS011;14546;47.590;19.022;2023-04-08T11:01:41;29.38;;;21.67;;
27003;SDS011;14546;47.590;19.022;2023-04-08T11:04:15;23.48;;;17.98;;
27003;SDS011;14546;47.590;19.022;2023-04-08T11:06:43;22.10;;;17.73;;
27003;SDS011;14546;47.590;19.022;2023-04-08T11:09:11;26.42;;;18.75;;
27003;SDS011;14546;47.590;19.022;2023-04-08T11:11:37;22.17;;;18.00;;
27003;SDS011;14546;47.590;19.022;2023-04-08T11:14:06;25.40;;;19.65;;
27003;SDS011;14546;47.590;19.022;2023-04-08T11:16:32;22.58;;;19.50;;
27003;SDS011;14546;47.590;19.022;2023-04-08T11:19:00;23.30;;;18.38;;
27003;SDS011;14546;47.590;19.022;2023-04-08T11:21:30;25.80;;;18.55;;
27003;SDS011;14546;47.590;19.022;2023-04-08T11:23:59;23.10;;;16.70;;
27003;SDS011;14546;47.590;19.022;2023-04-08T11:26:25;17.98;;;14.93;;
27003;SDS011;14546;47.590;19.022;2023-04-08T11:28:51;17.45;;;13.88;;
27003;SDS011;14546;47.590;19.022;2023-04-08T11:31:19;17.27;;;13.98;;
27003;SDS011;14546;47.590;19.022;2023-04-08T11:33:49;16.67;;;13.77;;
27003;SDS011;14546;47.590;19.022;2023-04-08T11:36:17;16.80;;;13.48;;
27003;SDS011;14546;47.590;19.022;2023-04-08T11:38:43;18.85;;;14.77;;
27003;SDS011;14546;47.590;19.022;2023-04-08T11:41:11;21.77;;;16.40;;
27003;SDS011;14546;47.590;19.022;2023-04-08T11:43:37;17.95;;;15.05;;
27003;SDS011;14546;47.590;19.022;2023-04-08T11:46:11;18.70;;;14.90;;
27003;SDS011;14546;47.590;19.022;2023-04-08T11:48:37;20.10;;;15.07;;
27003;SDS011;14546;47.590;19.022;2023-04-08T11:51:06;20.27;;;16.05;;
27003;SDS011;14546;47.590;19.022;2023-04-08T11:53:36;28.00;;;19.05;;
27003;SDS011;14546;47.590;19.022;2023-04-08T11:56:17;23.63;;;17.48;;
27003;SDS011;14546;47.590;19.022;2023-04-08T11:58:45;24.00;;;18.67;;
27003;SDS011;14546;47.590;19.022;2023-04-08T12:01:11;23.85;;;18.67;;
27003;SDS011;14546;47.590;19.022;2023-04-08T12:03:37;23.67;;;18.13;;
27003;SDS011;14546;47.590;19.022;2023-04-08T12:06:03;24.15;;;18.88;;
27003;SDS011;14546;47.590;19.022;2023-04-08T12:08:31;23.73;;;19.38;;
27003;SDS011;14546;47.590;19.022;2023-04-08T12:10:56;22.02;;;17.75;;
27003;SDS011;14546;47.590;19.022;2023-04-08T12:13:22;24.48;;;19.83;;
27003;SDS011;14546;47.590;19.022;2023-04-08T12:15:48;24.83;;;20.25;;
27003;SDS011;14546;47.590;19.022;2023-04-08T12:18:13;24.83;;;20.08;;
27003;SDS011;14546;47.590;19.022;2023-04-08T12:20:40;24.73;;;19.73;;
27003;SDS011;14546;47.590;19.022;2023-04-08T12:23:08;25.92;;;19.75;;
27003;SDS011;14546;47.590;19.022;2023-04-08T12:25:34;25.73;;;19.85;;
27003;SDS011;14546;47.590;19.022;2023-04-08T12:27:59;24.85;;;18.55;;
27003;SDS011;14546;47.590;19.022;2023-04-08T12:30:25;23.55;;;18.83;;
27003;SDS011;14546;47.590;19.022;2023-04-08T12:32:51;23.67;;;19.17;;
27003;SDS011;14546;47.590;19.022;2023-04-08T12:35:19;23.33;;;18.70;;
27003;SDS011;14546;47.590;19.022;2023-04-08T12:37:44;23.88;;;18.77;;
27003;SDS011;14546;47.590;19.022;2023-04-08T12:40:10;23.65;;;18.58;;
27003;SDS011;14546;47.590;19.022;2023-04-08T12:42:36;26.92;;;21.65;;
27003;SDS011;14546;47.590;19.022;2023-04-08T12:45:02;24.65;;;20.10;;
27003;SDS011;14546;47.590;19.022;2023-04-08T12:47:28;25.75;;;19.92;;
27003;SDS011;14546;47.590;19.022;2023-04-08T12:49:53;25.27;;;20.77;;
27003;SDS011;14546;47.590;19.022;2023-04-08T12:52:19;25.88;;;20.75;;
27003;SDS011;14546;47.590;19.022;2023-04-08T12:54:44;25.75;;;19.88;;
27003;SDS011;14546;47.590;19.022;2023-04-08T12:57:10;24.55;;;19.73;;
27003;SDS011;14546;47.590;19.022;2023-04-08T12:59:36;23.67;;;19.60;;
27003;SDS011;14546;47.590;19.022;2023-04-08T13:02:03;25.35;;;20.38;;
27003;SDS011;14546;47.590;19.022;2023-04-08T13:04:29;22.73;;;17.60;;
27003;SDS011;14546;47.590;19.022;2023-04-08T13:06:55;22.38;;;18.58;;
27003;SDS011;14546;47.590;19.022;2023-04-08T13:09:21;22.95;;;17.88;;
27003;SDS011;14546;47.590;19.022;2023-04-08T13:11:47;22.25;;;17.90;;
27003;SDS011;14546;47.590;19.022;2023-04-08T13:14:12;21.33;;;17.95;;
27003;SDS011;14546;47.590;19.022;2023-04-08T13:16:38;24.20;;;18.63;;
27003;SDS011;14546;47.590;19.022;2023-04-08T13:19:04;21.90;;;17.38;;
27003;SDS011;14546;47.590;19.022;2023-04-08T13:21:29;19.90;;;16.63;;
27003;SDS011;14546;47.590;19.022;2023-04-08T13:23:55;18.58;;;14.48;;
27003;SDS011;14546;47.590;19.022;2023-04-08T13:26:21;18.85;;;16.15;;
27003;SDS011;14546;47.590;19.022;2023-04-08T13:28:46;19.55;;;16.00;;
27003;SDS011;14546;47.590;19.022;2023-04-08T13:31:12;20.02;;;16.20;;
27003;SDS011;14546;47.590;19.022;2023-04-08T13:33:38;19.60;;;15.55;;
27003;SDS011;14546;47.590;19.022;2023-04-08T13:36:03;17.92;;;15.45;;
27003;SDS011;14546;47.590;19.022;2023-04-08T13:38:29;19.85;;;15.65;;
27003;SDS011;14546;47.590;19.022;2023-04-08T13:40:55;17.23;;;14.68;;
27003;SDS011;14546;47.590;19.022;2023-04-08T13:43:21;18.45;;;14.65;;
27003;SDS011;14546;47.590;19.022;2023-04-08T13:45:47;19.08;;;14.98;;
27003;SDS011;14546;47.590;19.022;2023-04-08T13:48:12;20.88;;;14.90;;
27003;SDS011;14546;47.590;19.022;2023-04-08T13:50:38;20.70;;;15.80;;
27003;SDS011;14546;47.590;19.022;2023-04-08T13:53:05;18.83;;;15.48;;
27003;SDS011;14546;47.590;19.022;2023-04-08T13:55:31;20.10;;;15.60;;
27003;SDS011;14546;47.590;19.022;2023-04-08T13:58:00;21.48;;;16.77;;
27003;SDS011;14546;47.590;19.022;2023-04-08T14:00:25;20.98;;;17.45;;
27003;SDS011;14546;47.590;19.022;2023-04-08T14:02:51;19.42;;;15.98;;
27003;SDS011;14546;47.590;19.022;2023-04-08T14:05:17;18.15;;;14.07;;
27003;SDS011;14546;47.590;19.022;2023-04-08T14:07:43;17.52;;;14.60;;
27003;SDS011;14546;47.590;19.022;2023-04-08T14:10:08;17.85;;;14.80;;
27003;SDS011;14546;47.590;19.022;2023-04-08T14:12:34;16.33;;;14.00;;
27003;SDS011;14546;47.590;19.022;2023-04-08T14:15:00;18.08;;;14.15;;
27003;SDS011;14546;47.590;19.022;2023-04-08T14:17:26;22.45;;;14.48;;
27003;SDS011;14546;47.590;19.022;2023-04-08T14:19:52;15.05;;;13.20;;
27003;SDS011;14546;47.590;19.022;2023-04-08T14:22:18;13.05;;;10.73;;